Aviation Digital Data Service (ADDS)

Output produced by METARs form (1535 UTC 18 January 2018)
found at http://aviationweather.gov/adds/metars/
 
KHOU 181453Z 09006KT 10SM OVC090 M01/M10 A3059 RMK AO2 SLP363 T10061100 53006